Time;durP1;ratioP1;P1;durP2;ratioP2;P2;SDS_P1;SDS_P2;PMS_P1;PMS_P2;Temp;Humidity;BMP_temperature;BMP_pressure;BME280_temperature;BME280_humidity;BME280_pressure;Samples;Min_cycle;Max_cycle;Signal;HPM_P1;HPM_P2
2024/02/02 00:00:13;;;;;;;8.95;2.65;;;;;;;;;;6191095;23;20484;-76
2024/02/02 00:02:59;;;;;;;6.80;2.63;;;;;;;;;;6190700;23;20021;-76
2024/02/02 00:05:47;;;;;;;5.40;2.67;;;;;;;;;;6188734;23;20017;-76
2024/02/02 00:08:33;;;;;;;4.68;2.40;;;;;;;;;;6169538;23;20457;-76
2024/02/02 00:11:21;;;;;;;3.92;1.98;;;;;;;;;;6191352;23;20021;-77
2024/02/02 00:14:07;;;;;;;10.82;2.80;;;;;;;;;;6168971;23;20025;-77
2024/02/02 00:16:53;;;;;;;7.47;2.42;;;;;;;;;;6169526;23;20017;-76
2024/02/02 00:19:39;;;;;;;4.85;2.35;;;;;;;;;;6192232;23;20013;-75
2024/02/02 00:22:25;;;;;;;4.90;1.98;;;;;;;;;;6190495;23;20021;-75
2024/02/02 00:25:10;;;;;;;14.57;3.38;;;;;;;;;;6170394;23;20310;-75
2024/02/02 00:28:00;;;;;;;6.40;3.17;;;;;;;;;;6191200;23;20017;-75
2024/02/02 00:30:46;;;;;;;8.60;3.40;;;;;;;;;;6190685;23;20354;-76
2024/02/02 00:33:32;;;;;;;10.90;2.80;;;;;;;;;;6169889;23;20021;-76
2024/02/02 00:36:18;;;;;;;5.38;2.55;;;;;;;;;;6181844;23;20021;-75
2024/02/02 00:39:06;;;;;;;13.75;4.05;;;;;;;;;;6191187;23;20017;-75
2024/02/02 00:41:52;;;;;;;8.98;2.95;;;;;;;;;;6191738;23;20021;-75
2024/02/02 00:44:39;;;;;;;8.02;2.97;;;;;;;;;;6170131;23;20021;-75
2024/02/02 00:47:25;;;;;;;8.15;3.63;;;;;;;;;;6183058;23;20350;-75
2024/02/02 00:50:11;;;;;;;9.13;3.10;;;;;;;;;;6171298;23;20481;-75
2024/02/02 00:52:57;;;;;;;7.55;3.33;;;;;;;;;;6190280;23;20458;-75
2024/02/02 00:55:43;;;;;;;5.50;2.63;;;;;;;;;;6170350;23;20477;-75
2024/02/02 00:58:29;;;;;;;6.90;3.03;;;;;;;;;;6191657;23;20042;-75
2024/02/02 01:01:16;;;;;;;5.43;2.92;;;;;;;;;;6170510;23;20013;-75
2024/02/02 01:04:03;;;;;;;6.82;3.22;;;;;;;;;;6190761;23;20021;-76
2024/02/02 01:06:49;;;;;;;7.30;3.10;;;;;;;;;;6170163;23;20461;-75
2024/02/02 01:09:34;;;;;;;15.32;3.88;;;;;;;;;;6170173;23;20020;-75
2024/02/02 01:12:21;;;;;;;11.95;3.45;;;;;;;;;;6168556;23;20021;-76
2024/02/02 01:15:07;;;;;;;6.68;3.45;;;;;;;;;;6191575;23;20025;-76
2024/02/02 01:17:54;;;;;;;6.72;2.85;;;;;;;;;;6181104;23;20020;-76
2024/02/02 01:20:41;;;;;;;6.15;2.85;;;;;;;;;;6191863;23;20013;-76
2024/02/02 01:23:27;;;;;;;6.97;2.83;;;;;;;;;;6169139;23;20017;-75
2024/02/02 01:26:15;;;;;;;4.78;2.22;;;;;;;;;;6169822;23;20021;-76
2024/02/02 01:29:04;;;;;;;4.70;2.58;;;;;;;;;;6169653;23;20029;-76
2024/02/02 01:31:49;;;;;;;6.43;2.53;;;;;;;;;;6168956;23;20025;-76
2024/02/02 01:34:39;;;;;;;5.22;2.90;;;;;;;;;;6168870;23;20021;-76
2024/02/02 01:37:25;;;;;;;3.72;2.08;;;;;;;;;;6191136;23;20475;-76
2024/02/02 01:40:13;;;;;;;6.20;3.08;;;;;;;;;;6169811;23;20020;-75
2024/02/02 01:43:03;;;;;;;7.35;2.88;;;;;;;;;;6169368;23;20017;-76
2024/02/02 01:45:50;;;;;;;9.57;2.78;;;;;;;;;;6190026;23;20021;-76
2024/02/02 01:48:36;;;;;;;5.35;2.85;;;;;;;;;;6190799;23;20473;-76
2024/02/02 01:51:24;;;;;;;16.35;3.80;;;;;;;;;;6190878;23;20013;-76
2024/02/02 01:54:10;;;;;;;9.25;3.42;;;;;;;;;;6190950;23;20021;-75
2024/02/02 01:56:56;;;;;;;9.23;3.08;;;;;;;;;;6189643;23;20021;-75
2024/02/02 01:59:42;;;;;;;7.95;2.88;;;;;;;;;;6193321;23;20021;-75
2024/02/02 02:02:30;;;;;;;10.60;3.00;;;;;;;;;;6169776;23;20469;-75
2024/02/02 02:05:16;;;;;;;7.38;3.78;;;;;;;;;;6190661;23;20021;-75
2024/02/02 02:08:03;;;;;;;5.88;3.08;;;;;;;;;;6169375;23;20025;-76
2024/02/02 02:10:52;;;;;;;8.23;2.83;;;;;;;;;;6191936;23;20477;-76
2024/02/02 02:13:38;;;;;;;9.48;3.55;;;;;;;;;;6170087;23;20017;-75
2024/02/02 02:16:25;;;;;;;15.40;2.95;;;;;;;;;;6188854;23;20017;-76
2024/02/02 02:19:14;;;;;;;6.88;3.05;;;;;;;;;;6192347;23;20021;-76
2024/02/02 02:22:02;;;;;;;7.07;2.70;;;;;;;;;;6172581;23;20017;-76
2024/02/02 02:24:48;;;;;;;8.57;3.13;;;;;;;;;;6193948;23;20021;-75
2024/02/02 02:27:36;;;;;;;8.52;3.00;;;;;;;;;;6195894;23;20029;-76
2024/02/02 02:30:22;;;;;;;6.95;3.45;;;;;;;;;;6172493;23;20017;-76
2024/02/02 02:33:10;;;;;;;6.00;3.58;;;;;;;;;;6190811;23;20331;-76
2024/02/02 02:35:59;;;;;;;3.70;2.47;;;;;;;;;;6188750;23;20021;-75
2024/02/02 02:38:46;;;;;;;4.95;2.63;;;;;;;;;;6171150;23;20017;-77
2024/02/02 02:41:32;;;;;;;7.22;3.40;;;;;;;;;;6192284;23;20021;-77
2024/02/02 02:44:18;;;;;;;7.90;3.03;;;;;;;;;;6192296;23;20024;-77
2024/02/02 02:47:06;;;;;;;10.10;3.50;;;;;;;;;;6185904;23;20024;-76
2024/02/02 02:49:52;;;;;;;8.88;3.28;;;;;;;;;;6192265;23;20021;-76
2024/02/02 02:52:38;;;;;;;12.75;3.20;;;;;;;;;;6194109;23;20021;-76
2024/02/02 02:55:28;;;;;;;6.57;3.15;;;;;;;;;;6192828;23;20024;-76
2024/02/02 02:58:14;;;;;;;5.72;2.80;;;;;;;;;;6172012;23;20021;-77
2024/02/02 03:00:59;;;;;;;7.32;2.97;;;;;;;;;;6193635;23;20017;-77
2024/02/02 03:03:45;;;;;;;7.22;3.25;;;;;;;;;;6171029;23;20047;-76
2024/02/02 03:06:31;;;;;;;5.97;3.00;;;;;;;;;;6191013;23;20025;-76
2024/02/02 03:09:19;;;;;;;6.03;3.20;;;;;;;;;;6192594;23;20025;-76
2024/02/02 03:12:07;;;;;;;7.18;3.63;;;;;;;;;;6170249;23;20017;-77
2024/02/02 03:14:53;;;;;;;7.82;3.40;;;;;;;;;;6178166;23;20029;-74
2024/02/02 03:17:44;;;;;;;7.40;3.00;;;;;;;;;;6182315;23;20025;-74
2024/02/02 03:20:32;;;;;;;5.25;3.10;;;;;;;;;;6172505;23;20017;-74
2024/02/02 03:23:18;;;;;;;6.05;3.17;;;;;;;;;;6191710;23;20021;-74
2024/02/02 03:26:07;;;;;;;6.15;3.30;;;;;;;;;;6189712;23;20021;-74
2024/02/02 03:28:54;;;;;;;6.60;3.38;;;;;;;;;;6191484;23;20450;-74
2024/02/02 03:31:43;;;;;;;8.68;3.70;;;;;;;;;;6191525;23;20013;-74
2024/02/02 03:34:29;;;;;;;8.65;4.10;;;;;;;;;;6192289;23;20322;-74
2024/02/02 03:37:15;;;;;;;10.25;3.65;;;;;;;;;;6190797;23;20021;-72
2024/02/02 03:40:04;;;;;;;8.65;3.97;;;;;;;;;;6192121;23;20021;-72
2024/02/02 03:42:50;;;;;;;9.43;3.85;;;;;;;;;;6191506;23;20021;-73
2024/02/02 03:45:40;;;;;;;9.68;2.95;;;;;;;;;;6192556;23;20021;-73
2024/02/02 03:48:26;;;;;;;10.00;3.88;;;;;;;;;;6192541;23;20021;-73
2024/02/02 03:51:11;;;;;;;9.20;3.72;;;;;;;;;;6191898;23;20028;-73
2024/02/02 03:54:00;;;;;;;9.05;4.18;;;;;;;;;;6192037;23;20445;-73
2024/02/02 03:56:45;;;;;;;11.18;4.20;;;;;;;;;;6189953;23;20024;-74
2024/02/02 03:59:31;;;;;;;8.40;3.70;;;;;;;;;;6190539;23;20457;-74
2024/02/02 04:02:19;;;;;;;8.15;4.20;;;;;;;;;;6191932;23;20013;-74
2024/02/02 04:05:07;;;;;;;12.45;4.28;;;;;;;;;;6189883;23;20025;-74
2024/02/02 04:07:56;;;;;;;9.85;4.13;;;;;;;;;;6192207;23;20017;-74
2024/02/02 04:10:42;;;;;;;12.10;4.63;;;;;;;;;;6190941;23;20017;-74
2024/02/02 04:13:28;;;;;;;7.35;4.00;;;;;;;;;;6191326;23;20021;-74
2024/02/02 04:16:16;;;;;;;6.47;4.28;;;;;;;;;;6184945;23;20021;-74
2024/02/02 04:19:03;;;;;;;10.57;4.82;;;;;;;;;;6191819;23;20024;-74
2024/02/02 04:21:49;;;;;;;14.57;5.15;;;;;;;;;;6170830;23;20017;-74
2024/02/02 04:24:35;;;;;;;9.68;3.95;;;;;;;;;;6191265;23;20021;-74
2024/02/02 04:27:21;;;;;;;11.32;3.95;;;;;;;;;;6184981;23;20017;-74
2024/02/02 04:30:08;;;;;;;8.63;4.28;;;;;;;;;;6191906;23;20021;-74
2024/02/02 04:32:54;;;;;;;13.05;3.70;;;;;;;;;;6191490;23;20021;-74
2024/02/02 04:35:41;;;;;;;9.35;4.00;;;;;;;;;;6190924;23;20433;-74
2024/02/02 04:38:27;;;;;;;10.88;4.60;;;;;;;;;;6189887;23;20021;-74
2024/02/02 04:41:16;;;;;;;15.50;4.95;;;;;;;;;;6191690;23;20013;-74
2024/02/02 04:44:01;;;;;;;11.43;4.63;;;;;;;;;;6189637;23;20021;-74
2024/02/02 04:46:47;;;;;;;10.50;4.80;;;;;;;;;;6185515;23;20021;-74
2024/02/02 04:49:38;;;;;;;10.48;4.25;;;;;;;;;;6212947;23;20017;-74
2024/02/02 04:52:25;;;;;;;9.10;3.75;;;;;;;;;;6191974;23;20017;-74
2024/02/02 04:55:12;;;;;;;9.60;3.83;;;;;;;;;;6192231;23;20413;-74
2024/02/02 04:58:00;;;;;;;7.38;3.78;;;;;;;;;;6191965;23;20450;-74
2024/02/02 05:00:46;;;;;;;9.20;3.63;;;;;;;;;;6192029;23;20025;-74
2024/02/02 05:03:32;;;;;;;11.20;4.10;;;;;;;;;;6192324;23;20025;-74
2024/02/02 05:06:18;;;;;;;8.15;3.75;;;;;;;;;;6191137;23;20020;-74
2024/02/02 05:09:08;;;;;;;9.57;3.88;;;;;;;;;;6193018;23;20024;-74
2024/02/02 05:11:54;;;;;;;11.32;4.20;;;;;;;;;;6193245;23;20017;-74
2024/02/02 05:14:40;;;;;;;10.23;3.53;;;;;;;;;;6184171;23;20017;-74
2024/02/02 05:17:25;;;;;;;7.85;3.58;;;;;;;;;;6184789;23;20017;-74
2024/02/02 05:20:14;;;;;;;9.18;4.03;;;;;;;;;;6190480;23;20017;-74
2024/02/02 05:23:05;;;;;;;10.68;3.65;;;;;;;;;;6191995;23;20021;-74
2024/02/02 05:25:54;;;;;;;9.45;4.53;;;;;;;;;;6190764;23;20017;-73
2024/02/02 05:28:41;;;;;;;9.30;3.83;;;;;;;;;;6191662;23;20025;-73
2024/02/02 05:31:29;;;;;;;7.53;4.00;;;;;;;;;;6191329;23;20017;-73
2024/02/02 05:34:18;;;;;;;6.78;3.80;;;;;;;;;;6190762;23;20017;-74
2024/02/02 05:37:06;;;;;;;11.00;4.50;;;;;;;;;;6184098;23;20025;-74
2024/02/02 05:39:54;;;;;;;8.52;3.92;;;;;;;;;;6191226;23;20025;-73
2024/02/02 05:42:45;;;;;;;12.23;4.07;;;;;;;;;;6190635;23;20017;-73
2024/02/02 05:45:31;;;;;;;12.73;4.85;;;;;;;;;;6190200;23;20743;-73
2024/02/02 05:48:22;;;;;;;8.32;4.30;;;;;;;;;;6190233;23;20021;-75
2024/02/02 05:51:08;;;;;;;9.60;3.67;;;;;;;;;;6190452;23;20017;-74
2024/02/02 05:53:54;;;;;;;10.57;4.38;;;;;;;;;;6192894;23;20021;-74
2024/02/02 05:56:42;;;;;;;9.20;3.72;;;;;;;;;;6191889;23;20025;-74
2024/02/02 05:59:29;;;;;;;8.15;3.55;;;;;;;;;;6193397;23;20017;-74
2024/02/02 06:02:21;;;;;;;7.85;3.42;;;;;;;;;;6193150;23;20021;-75
2024/02/02 06:05:07;;;;;;;8.60;3.85;;;;;;;;;;6193053;23;20024;-74
2024/02/02 06:07:53;;;;;;;8.00;3.80;;;;;;;;;;6192471;23;20331;-74
2024/02/02 06:10:40;;;;;;;7.13;3.58;;;;;;;;;;6193179;23;20331;-74
2024/02/02 06:13:26;;;;;;;5.50;3.47;;;;;;;;;;6190966;23;20017;-74
2024/02/02 06:16:15;;;;;;;7.18;3.45;;;;;;;;;;6172612;23;20330;-74
2024/02/02 06:19:04;;;;;;;;;;;;;;;;;;6194183;23;20025;-74
2024/02/02 06:21:50;;;;;;;6.18;3.08;;;;;;;;;;6171651;23;19923;-74
2024/02/02 06:24:36;;;;;;;7.22;3.70;;;;;;;;;;6171447;23;20025;-74
2024/02/02 06:27:22;;;;;;;7.03;3.45;;;;;;;;;;6186097;23;20025;-74
2024/02/02 06:30:09;;;;;;;5.50;3.00;;;;;;;;;;6193040;23;20452;-74
2024/02/02 06:33:00;;;;;;;6.20;3.03;;;;;;;;;;6192829;23;20017;-75
2024/02/02 06:35:48;;;;;;;6.07;3.00;;;;;;;;;;6191688;23;20021;-74
2024/02/02 06:38:37;;;;;;;9.00;4.00;;;;;;;;;;6192927;23;20021;-74
2024/02/02 06:41:23;;;;;;;7.80;3.40;;;;;;;;;;6192332;23;20017;-74
2024/02/02 06:44:14;;;;;;;8.20;3.90;;;;;;;;;;6209978;23;20021;-74
2024/02/02 06:47:02;;;;;;;5.90;3.28;;;;;;;;;;6190576;23;20025;-74
2024/02/02 06:49:49;;;;;;;6.03;3.22;;;;;;;;;;6190554;23;20473;-74
2024/02/02 06:52:35;;;;;;;6.22;3.47;;;;;;;;;;6191790;23;20021;-74
2024/02/02 06:55:22;;;;;;;9.20;4.50;;;;;;;;;;6191690;23;20024;-74
2024/02/02 06:58:32;;;;;;;6.90;4.05;;;;;;;;;;6192297;23;20021;-74
2024/02/02 07:01:20;;;;;;;6.65;3.47;;;;;;;;;;6170070;23;20033;-74
2024/02/02 07:04:08;;;;;;;10.48;4.38;;;;;;;;;;6190780;23;20029;-74
2024/02/02 07:06:55;;;;;;;9.32;4.03;;;;;;;;;;6185434;23;20021;-74
2024/02/02 07:09:44;;;;;;;12.10;4.28;;;;;;;;;;6193728;23;20024;-74
2024/02/02 07:12:54;;;;;;;8.82;4.63;;;;;;;;;;6191821;23;20013;-74
2024/02/02 07:15:41;;;;;;;6.85;4.03;;;;;;;;;;6191353;23;20021;-74
2024/02/02 07:18:34;;;;;;;9.88;4.07;;;;;;;;;;6191016;23;20029;-74
2024/02/02 07:21:20;;;;;;;6.90;3.70;;;;;;;;;;6189470;23;20021;-74
2024/02/02 07:24:08;;;;;;;8.05;3.88;;;;;;;;;;6187361;23;20741;-74
2024/02/02 07:26:54;;;;;;;6.97;3.97;;;;;;;;;;6182648;23;20331;-74
2024/02/02 07:29:40;;;;;;;8.48;4.32;;;;;;;;;;6188599;23;20017;-74
2024/02/02 07:32:26;;;;;;;10.18;4.38;;;;;;;;;;6190608;23;20017;-73
2024/02/02 07:35:25;;;;;;;9.23;4.35;;;;;;;;;;6189350;23;20017;-73
2024/02/02 07:38:41;;;;;;;9.82;4.60;;;;;;;;;;6187538;23;20025;-73
2024/02/02 07:41:29;;;;;;;9.15;4.75;;;;;;;;;;6190908;23;20021;-74
2024/02/02 07:44:15;;;;;;;11.60;4.07;;;;;;;;;;6189609;23;20325;-74
2024/02/02 07:47:06;;;;;;;10.57;5.45;;;;;;;;;;6186167;23;20017;-74
2024/02/02 07:49:52;;;;;;;9.23;5.18;;;;;;;;;;6190824;23;20025;-73
2024/02/02 07:52:40;;;;;;;13.35;5.22;;;;;;;;;;6191351;23;20013;-73
2024/02/02 07:55:29;;;;;;;10.15;4.80;;;;;;;;;;6188576;23;20017;-73
2024/02/02 07:58:17;;;;;;;13.25;4.90;;;;;;;;;;6190933;23;20021;-73
2024/02/02 08:01:03;;;;;;;8.40;4.60;;;;;;;;;;6190045;23;20017;-73
2024/02/02 08:03:49;;;;;;;9.93;4.38;;;;;;;;;;6192527;23;20017;-74
2024/02/02 08:06:35;;;;;;;9.55;4.55;;;;;;;;;;6182300;23;20017;-74
2024/02/02 08:09:23;;;;;;;12.40;4.82;;;;;;;;;;6187942;23;20024;-73
2024/02/02 08:12:11;;;;;;;13.25;5.25;;;;;;;;;;6191115;23;20021;-74
2024/02/02 08:14:59;;;;;;;9.95;4.63;;;;;;;;;;6181128;23;20021;-74
2024/02/02 08:17:45;;;;;;;11.60;5.25;;;;;;;;;;6192773;23;20021;-74
2024/02/02 08:20:36;;;;;;;10.80;5.80;;;;;;;;;;6192435;23;20017;-74
2024/02/02 08:23:22;;;;;;;8.70;4.47;;;;;;;;;;6185720;23;20021;-74
2024/02/02 08:26:07;;;;;;;10.27;4.85;;;;;;;;;;6180387;23;20025;-74
2024/02/02 08:28:53;;;;;;;8.40;4.68;;;;;;;;;;6191988;23;20021;-74
2024/02/02 08:31:44;;;;;;;10.85;5.85;;;;;;;;;;6189804;23;20025;-74
2024/02/02 08:34:30;;;;;;;10.43;5.07;;;;;;;;;;6190741;23;20383;-74
2024/02/02 08:37:19;;;;;;;10.73;4.80;;;;;;;;;;6189114;23;20020;-74
2024/02/02 08:40:06;;;;;;;17.75;8.63;;;;;;;;;;6191314;23;20025;-74
2024/02/02 08:42:52;;;;;;;13.93;6.53;;;;;;;;;;6191686;23;20017;-74
2024/02/02 08:46:19;;;;;;;11.75;5.20;;;;;;;;;;6184143;23;20017;-74
2024/02/02 08:49:26;;;;;;;10.40;4.78;;;;;;;;;;6191257;23;20021;-74
2024/02/02 08:52:13;;;;;;;10.02;5.25;;;;;;;;;;6190498;23;20024;-74
2024/02/02 08:54:59;;;;;;;13.82;5.55;;;;;;;;;;6189131;23;20038;-74
2024/02/02 08:58:06;;;;;;;12.13;6.55;;;;;;;;;;6185698;23;20021;-73
2024/02/02 09:00:52;;;;;;;11.88;5.57;;;;;;;;;;6188945;23;20517;-74
2024/02/02 09:03:43;;;;;;;15.90;7.07;;;;;;;;;;6191146;23;20028;-74
2024/02/02 09:06:44;;;;;;;18.88;8.98;;;;;;;;;;6187303;23;20025;-75
2024/02/02 09:09:31;;;;;;;17.85;9.02;;;;;;;;;;6191322;23;20017;-74
2024/02/02 09:12:19;;;;;;;24.17;9.70;;;;;;;;;;6191714;23;20021;-75
2024/02/02 09:15:15;;;;;;;27.88;10.30;;;;;;;;;;6211117;22;20017;-77
2024/02/02 09:18:05;;;;;;;22.48;9.70;;;;;;;;;;6150803;23;20481;-76
2024/02/02 09:20:51;;;;;;;17.65;6.82;;;;;;;;;;6171024;23;20354;-76
2024/02/02 09:23:39;;;;;;;31.08;10.07;;;;;;;;;;6149642;23;20465;-77
2024/02/02 09:26:33;;;;;;;27.02;8.38;;;;;;;;;;6150148;23;20365;-77
2024/02/02 09:29:22;;;;;;;25.13;9.10;;;;;;;;;;6150732;23;20029;-77
2024/02/02 09:32:09;;;;;;;23.30;9.25;;;;;;;;;;6173051;23;20485;-76
2024/02/02 09:34:58;;;;;;;22.85;8.48;;;;;;;;;;6173019;23;20016;-77
2024/02/02 09:37:50;;;;;;;18.33;8.13;;;;;;;;;;6163378;23;20013;-76
2024/02/02 09:41:13;;;;;;;22.02;8.43;;;;;;;;;;6172890;23;20025;-77
2024/02/02 09:44:07;;;;;;;12.73;6.95;;;;;;;;;;6172742;23;20460;-77
2024/02/02 09:46:59;;;;;;;13.93;5.50;;;;;;;;;;6189366;23;20024;-77
2024/02/02 09:49:52;;;;;;;10.20;5.57;;;;;;;;;;6152164;23;20017;-77
2024/02/02 09:52:53;;;;;;;13.57;5.97;;;;;;;;;;6152041;23;20338;-76
2024/02/02 09:55:48;;;;;;;14.20;6.30;;;;;;;;;;6172342;23;20457;-76
2024/02/02 09:58:41;;;;;;;17.95;6.55;;;;;;;;;;6151777;23;20021;-76
2024/02/02 10:01:44;;;;;;;15.13;6.50;;;;;;;;;;6172615;23;20020;-76
2024/02/02 10:04:39;;;;;;;11.88;5.72;;;;;;;;;;6194959;23;20017;-77
2024/02/02 10:07:32;;;;;;;16.60;5.47;;;;;;;;;;6171284;23;20021;-77
2024/02/02 10:10:38;;;;;;;13.68;5.78;;;;;;;;;;6194841;23;20021;-77
2024/02/02 10:13:33;;;;;;;17.92;6.78;;;;;;;;;;6199219;23;20012;-76
2024/02/02 10:16:36;;;;;;;10.52;5.22;;;;;;;;;;6219880;23;20028;-76
2024/02/02 10:19:40;;;;;;;11.15;4.30;;;;;;;;;;6203333;23;20017;-76
2024/02/02 10:22:44;;;;;;;12.13;4.72;;;;;;;;;;6202812;23;20020;-76
2024/02/02 10:25:47;;;;;;;10.07;4.63;;;;;;;;;;6202821;23;20461;-77
2024/02/02 10:28:44;;;;;;;7.93;4.05;;;;;;;;;;6180813;23;20020;-76
2024/02/02 10:31:34;;;;;;;;;;;;;;;;;;6202849;23;20449;-76
2024/02/02 10:34:27;;;;;;;9.85;3.35;;;;;;;;;;6224971;23;19947;-77
2024/02/02 10:37:23;;;;;;;9.48;3.85;;;;;;;;;;6180533;23;20024;-77
2024/02/02 10:40:26;;;;;;;9.95;3.95;;;;;;;;;;6202701;23;20025;-77
2024/02/02 10:43:33;;;;;;;6.90;3.67;;;;;;;;;;6224443;23;20021;-77
2024/02/02 10:46:30;;;;;;;7.85;3.60;;;;;;;;;;6201883;23;20228;-77
2024/02/02 10:49:36;;;;;;;10.45;3.67;;;;;;;;;;6201896;23;20020;-78
2024/02/02 10:52:32;;;;;;;7.97;3.08;;;;;;;;;;6180803;23;20024;-77
2024/02/02 10:55:32;;;;;;;10.43;3.30;;;;;;;;;;6181106;23;20021;-77
2024/02/02 10:58:29;;;;;;;4.50;2.40;;;;;;;;;;6181116;23;20020;-76
2024/02/02 11:01:20;;;;;;;4.97;3.13;;;;;;;;;;6202045;23;20021;-76
2024/02/02 11:04:11;;;;;;;8.80;3.10;;;;;;;;;;6202112;23;20016;-77
2024/02/02 11:07:06;;;;;;;8.93;2.83;;;;;;;;;;6218105;23;20020;-77
2024/02/02 11:09:57;;;;;;;12.50;2.78;;;;;;;;;;6201661;23;20020;-76
2024/02/02 11:12:50;;;;;;;8.25;4.05;;;;;;;;;;6201800;23;20020;-76
2024/02/02 11:15:48;;;;;;;9.13;3.00;;;;;;;;;;6181197;23;20017;-77
2024/02/02 11:18:49;;;;;;;5.18;2.50;;;;;;;;;;6201217;23;20024;-77
2024/02/02 11:21:54;;;;;;;6.15;2.83;;;;;;;;;;6201566;23;20020;-77
2024/02/02 11:24:52;;;;;;;9.50;2.70;;;;;;;;;;6201495;23;20016;-77
2024/02/02 11:27:49;;;;;;;3.78;1.98;;;;;;;;;;6215237;23;20017;-77
2024/02/02 11:30:51;;;;;;;4.85;2.08;;;;;;;;;;6202681;23;20016;-78
2024/02/02 11:33:50;;;;;;;3.80;2.33;;;;;;;;;;6202347;23;20016;-77
2024/02/02 11:36:47;;;;;;;4.28;2.65;;;;;;;;;;6200865;23;20024;-76
2024/02/02 11:39:50;;;;;;;6.05;2.25;;;;;;;;;;6202324;23;20024;-77
2024/02/02 11:42:38;;;;;;;8.05;2.60;;;;;;;;;;6201633;23;20024;-77
2024/02/02 11:45:27;;;;;;;7.13;2.50;;;;;;;;;;6224506;23;20017;-76
2024/02/02 11:48:17;;;;;;;6.88;2.28;;;;;;;;;;6180165;23;20021;-77
2024/02/02 11:51:03;;;;;;;4.53;2.78;;;;;;;;;;6201635;23;20024;-77
2024/02/02 11:53:57;;;;;;;6.05;2.88;;;;;;;;;;6223834;23;20017;-76
2024/02/02 11:56:46;;;;;;;8.10;3.55;;;;;;;;;;6201105;23;20475;-76
2024/02/02 11:59:33;;;;;;;11.10;2.97;;;;;;;;;;6224277;23;20548;-76
2024/02/02 12:02:34;;;;;;;6.55;3.03;;;;;;;;;;6201682;23;20020;-76
2024/02/02 12:05:25;;;;;;;6.60;3.08;;;;;;;;;;6223538;23;20012;-77
2024/02/02 12:08:16;;;;;;;8.35;3.72;;;;;;;;;;6180448;23;20609;-77
2024/02/02 12:11:04;;;;;;;6.65;3.03;;;;;;;;;;6180508;23;20020;-77
2024/02/02 12:13:51;;;;;;;6.72;2.90;;;;;;;;;;6219637;23;20020;-76
2024/02/02 12:16:37;;;;;;;6.03;3.05;;;;;;;;;;6179765;23;20020;-77
2024/02/02 12:19:26;;;;;;;8.45;3.40;;;;;;;;;;6201419;23;20021;-76
2024/02/02 12:22:15;;;;;;;5.70;2.80;;;;;;;;;;6201272;23;20024;-77
2024/02/02 12:25:04;;;;;;;5.95;3.20;;;;;;;;;;6200682;23;20017;-78
2024/02/02 12:27:51;;;;;;;4.43;3.05;;;;;;;;;;6214393;23;20012;-77
2024/02/02 12:30:37;;;;;;;6.60;3.10;;;;;;;;;;6180176;23;20017;-76
2024/02/02 12:33:23;;;;;;;5.40;3.42;;;;;;;;;;6224015;23;20315;-77
2024/02/02 12:36:09;;;;;;;3.50;2.28;;;;;;;;;;6200450;23;20013;-77
2024/02/02 12:38:58;;;;;;;4.75;2.45;;;;;;;;;;6179871;23;20349;-77
2024/02/02 12:41:44;;;;;;;4.15;2.05;;;;;;;;;;6200912;23;20020;-77
2024/02/02 12:44:34;;;;;;;4.72;2.70;;;;;;;;;;6201537;23;20446;-76
2024/02/02 12:47:24;;;;;;;6.07;2.85;;;;;;;;;;6180159;23;20021;-77
2024/02/02 12:50:15;;;;;;;7.03;2.40;;;;;;;;;;6223593;23;20017;-76
2024/02/02 12:53:05;;;;;;;4.22;2.38;;;;;;;;;;6223512;23;20469;-76
2024/02/02 12:55:50;;;;;;;3.95;2.58;;;;;;;;;;6179028;23;20017;-76
2024/02/02 12:58:39;;;;;;;5.07;2.60;;;;;;;;;;6201110;23;20453;-76
2024/02/02 13:01:29;;;;;;;3.17;2.17;;;;;;;;;;6223774;23;20016;-77
2024/02/02 13:04:17;;;;;;;5.18;2.00;;;;;;;;;;6200963;23;20021;-77
2024/02/02 13:07:05;;;;;;;3.78;2.00;;;;;;;;;;6179829;23;20016;-77
2024/02/02 13:09:55;;;;;;;4.20;1.95;;;;;;;;;;6179810;23;20020;-77
2024/02/02 13:12:49;;;;;;;4.35;1.85;;;;;;;;;;6201056;23;20449;-77
2024/02/02 13:15:35;;;;;;;2.13;1.73;;;;;;;;;;6200600;23;20016;-77
2024/02/02 13:18:24;;;;;;;7.47;2.40;;;;;;;;;;6180083;23;20021;-76
2024/02/02 13:21:24;;;;;;;4.97;1.85;;;;;;;;;;6200947;23;20441;-77
2024/02/02 13:24:17;;;;;;;2.67;1.45;;;;;;;;;;6179846;23;20017;-76
2024/02/02 13:27:06;;;;;;;4.18;1.90;;;;;;;;;;6193836;23;20017;-76
2024/02/02 13:29:56;;;;;;;2.38;1.40;;;;;;;;;;6200843;23;20021;-76
2024/02/02 13:32:45;;;;;;;1.85;1.35;;;;;;;;;;6179907;23;20318;-77
2024/02/02 13:35:32;;;;;;;3.40;1.50;;;;;;;;;;6179719;23;20020;-76
2024/02/02 13:38:18;;;;;;;2.90;1.80;;;;;;;;;;6200890;23;20460;-76
2024/02/02 13:41:11;;;;;;;2.45;1.73;;;;;;;;;;6222778;23;20016;-77
2024/02/02 13:44:02;;;;;;;3.47;1.42;;;;;;;;;;6223475;23;20326;-77
2024/02/02 13:46:51;;;;;;;2.72;1.60;;;;;;;;;;6200024;23;20338;-77
2024/02/02 13:49:39;;;;;;;3.33;1.40;;;;;;;;;;6200708;23;20465;-76
2024/02/02 13:52:27;;;;;;;2.58;1.80;;;;;;;;;;6200762;23;20024;-77
2024/02/02 13:55:15;;;;;;;;;;;;;;;;;;6200671;23;20024;-77
2024/02/02 13:58:01;;;;;;;4.13;2.03;;;;;;;;;;6222987;23;19926;-77
2024/02/02 14:00:51;;;;;;;2.60;2.15;;;;;;;;;;6201424;23;20017;-77
2024/02/02 14:03:41;;;;;;;4.97;2.17;;;;;;;;;;6223167;23;20021;-78
2024/02/02 14:06:29;;;;;;;4.57;2.03;;;;;;;;;;6196739;23;20016;-77
2024/02/02 14:09:22;;;;;;;3.58;1.85;;;;;;;;;;6200868;23;20021;-77
2024/02/02 14:12:09;;;;;;;4.97;1.70;;;;;;;;;;6200307;23;20020;-78
2024/02/02 14:15:02;;;;;;;2.35;1.35;;;;;;;;;;6200415;23;20012;-78
2024/02/02 14:17:48;;;;;;;3.83;1.85;;;;;;;;;;6180398;23;20021;-78
2024/02/02 14:20:34;;;;;;;4.00;1.83;;;;;;;;;;6181028;23;20331;-78
2024/02/02 14:23:22;;;;;;;5.50;1.80;;;;;;;;;;6181721;23;20020;-77
2024/02/02 14:26:11;;;;;;;5.57;1.73;;;;;;;;;;6180883;23;20016;-78
2024/02/02 14:28:59;;;;;;;4.38;1.65;;;;;;;;;;6181547;23;20322;-76
2024/02/02 14:31:45;;;;;;;2.92;1.60;;;;;;;;;;6180806;23;20021;-78
2024/02/02 14:34:34;;;;;;;3.78;1.80;;;;;;;;;;6225215;23;20021;-77
2024/02/02 14:37:20;;;;;;;2.15;1.58;;;;;;;;;;6194679;23;20012;-78
2024/02/02 14:40:11;;;;;;;2.33;2.00;;;;;;;;;;6180956;23;20017;-77
2024/02/02 14:42:58;;;;;;;6.05;1.98;;;;;;;;;;6201702;23;20027;-77
2024/02/02 14:45:44;;;;;;;3.47;1.88;;;;;;;;;;6222422;23;20012;-77
2024/02/02 14:48:32;;;;;;;3.85;2.22;;;;;;;;;;6181652;23;20020;-77
2024/02/02 14:51:21;;;;;;;3.63;1.95;;;;;;;;;;6180842;23;20020;-77
2024/02/02 14:54:09;;;;;;;4.05;2.10;;;;;;;;;;6202032;23;20020;-78
2024/02/02 14:56:58;;;;;;;3.97;2.00;;;;;;;;;;6195767;23;20020;-76
2024/02/02 14:59:51;;;;;;;2.60;1.70;;;;;;;;;;6202099;23;20126;-77
2024/02/02 15:02:39;;;;;;;2.65;1.77;;;;;;;;;;6180909;23;20024;-78
2024/02/02 15:05:26;;;;;;;3.35;1.67;;;;;;;;;;6181014;23;20502;-77
2024/02/02 15:08:17;;;;;;;2.63;1.60;;;;;;;;;;6224572;23;20039;-77
2024/02/02 15:11:06;;;;;;;3.47;2.22;;;;;;;;;;6202053;23;20016;-77
2024/02/02 15:25:38;;;;;;;2.88;1.48;;;;;;;;;;6213596;22;20020;-74
2024/02/02 15:28:23;;;;;;;4.03;2.10;;;;;;;;;;6224161;23;20017;-75
2024/02/02 15:31:12;;;;;;;3.20;1.90;;;;;;;;;;6224650;23;20017;-75
2024/02/02 15:33:58;;;;;;;2.60;1.55;;;;;;;;;;6201748;23;20016;-75
2024/02/02 15:36:46;;;;;;;4.57;1.80;;;;;;;;;;6180308;23;20016;-75
2024/02/02 15:39:32;;;;;;;2.83;1.63;;;;;;;;;;6201746;23;20024;-75
2024/02/02 15:42:20;;;;;;;4.88;1.85;;;;;;;;;;6180373;23;20042;-75
2024/02/02 15:45:06;;;;;;;3.63;1.85;;;;;;;;;;6201745;23;20017;-76
2024/02/02 16:11:28;;;;;;;3.58;1.58;;;;;;;;;;6212159;22;20050;-75
2024/02/02 16:14:17;;;;;;;3.10;1.80;;;;;;;;;;6179785;23;20021;-75
2024/02/02 16:17:03;;;;;;;4.43;1.90;;;;;;;;;;6201162;23;20016;-75
2024/02/02 16:19:49;;;;;;;2.92;1.50;;;;;;;;;;6180496;23;20330;-75
2024/02/02 16:22:35;;;;;;;4.10;1.65;;;;;;;;;;6179856;23;20020;-75
2024/02/02 16:25:22;;;;;;;3.33;1.40;;;;;;;;;;6179605;23;20028;-75
2024/02/02 16:28:12;;;;;;;3.63;2.00;;;;;;;;;;6180226;23;20020;-75
2024/02/02 16:30:58;;;;;;;2.40;1.55;;;;;;;;;;6201319;23;20016;-75
2024/02/02 16:33:44;;;;;;;4.07;1.55;;;;;;;;;;6180014;23;20021;-75
2024/02/02 16:36:39;;;;;;;4.22;1.80;;;;;;;;;;6180450;23;20016;-75
2024/02/02 16:39:28;;;;;;;3.97;1.80;;;;;;;;;;6223620;23;20330;-75
2024/02/02 16:42:14;;;;;;;3.47;2.00;;;;;;;;;;6201425;23;20016;-75
2024/02/02 16:45:05;;;;;;;3.00;1.70;;;;;;;;;;6221704;23;20017;-75
2024/02/02 16:47:54;;;;;;;2.80;1.80;;;;;;;;;;6223970;23;20012;-75
2024/02/02 16:50:40;;;;;;;4.72;2.50;;;;;;;;;;6180299;23;20457;-75
2024/02/02 16:53:28;;;;;;;5.68;2.92;;;;;;;;;;6180494;23;20017;-75
2024/02/02 16:56:17;;;;;;;4.75;2.05;;;;;;;;;;6219804;23;20013;-75
2024/02/02 16:59:03;;;;;;;5.22;2.08;;;;;;;;;;6179454;23;20013;-75
2024/02/02 17:01:51;;;;;;;2.83;1.90;;;;;;;;;;6223514;23;20020;-75
2024/02/02 17:04:37;;;;;;;1.92;1.33;;;;;;;;;;6201276;23;20024;-75
2024/02/02 17:07:24;;;;;;;2.60;1.55;;;;;;;;;;6193007;23;20021;-75
2024/02/02 17:10:10;;;;;;;2.67;2.00;;;;;;;;;;6179662;23;20046;-75
2024/02/02 17:12:59;;;;;;;4.03;2.30;;;;;;;;;;6222760;23;20461;-75
2024/02/02 17:15:44;;;;;;;5.45;1.80;;;;;;;;;;6230025;22;20020;-75
2024/02/02 17:18:34;;;;;;;2.58;1.83;;;;;;;;;;6221380;23;20035;-75
2024/02/02 17:21:20;;;;;;;2.30;1.50;;;;;;;;;;6230942;23;20329;-75
2024/02/02 17:24:07;;;;;;;3.30;1.63;;;;;;;;;;6252552;23;20532;-75
2024/02/02 17:26:58;;;;;;;3.72;1.83;;;;;;;;;;6209982;23;20016;-75